KHYS/HYS METAR and TAF weather

Enter ICAO airport designator
Station Type Date Time Source
KHYS METAR 2020/10/20 16:56 UTC NOAA

KHYS 201656Z AUTO 17010KT 10SM FEW012 BKN029 OVC035 08/04 A2999 RMK AO2 SLP164 T00780039


Station Type Date Time Source
KHYS Decoded METAR 2020/10/20 16:56 UTC NOAA

Hays, Hays Regional Airport, KS, United States (KHYS) 38-51N 099-16W
Oct 20, 2020 - 12:56 PM EDT / 2020.10.20 1656 UTC
Wind: from the S (170 degrees) at 12 MPH (10 KT):0
Visibility: 10 mile(s):0
Sky conditions: overcast
Temperature: 46.0 F (7.8 C)
Dew Point: 39.0 F (3.9 C)
Relative Humidity: 76%
Pressure (altimeter): 29.99 in. Hg (1015 hPa)
ob: KHYS 201656Z AUTO 17010KT 10SM FEW012 BKN029 OVC035 08/04 A2999 RMK AO2 SLP164 T00780039
cycle: 17

Station Type Date Time Source
KHYS TAF 2020/10/20 15:34 UTC NOAA

TAF
AMD KHYS 201432Z 2015/2112 12007KT P6SM BKN013
FM201730 VRB06KT P6SM SCT025

Example: see airport list